Terminal Aerodrome Forecast
Issued by NWS

Home | Current Version | Previous Version | Text Only | Print | Product List | Glossary On
Versions: 1 2 3 4 5 6 7 8 9 10 11 12 13 14 15 16 17 18 19 20 21 22 23
000
FTUS41 KBTV 221217 AAB
TAFPBG
TAF AMD
KPBG 221217Z 2212/2312 01010KT 2SM BR OVC004
      TEMPO 2212/2216 3SM BR OVC008
     FM221600 04009KT P6SM OVC008
     FM221800 04009KT P6SM OVC011
     FM222100 02012KT P6SM OVC015
     FM230300 36010KT P6SM OVC020
     FM230500 02010KT P6SM OVC015=

USA.gov is the U.S. government's official web portal to all federal, state and local government web resources and services.